CheckWX is a tool to help pilots better visualize weather data.  It is not intended as a substitute for an official pre-flight weather briefing.

23:02:24 UTC

EGVN TAF
RAF Brize Norton Airport
Brize Norton, United Kingdom
TAF EGVN 021337Z 0215/0315 29014KT 9999 BKN040 PROB30 TEMPO 0215/0306 -SHRA SCT022 BKN030

Apr-2@
15:00 UTC

Apr-2 @ 15:00 UTC

Apr-3@
15:00 UTC

Apr-3 @ 15:00 UTC

TAF EGVN 021337Z 0215/0315 29014KT 9999 BKN040
Wind
  • 290° at 14 KTS
Cloud Levels
  • Broken at 4,000' AGL

Apr-2@
15:00 UTC

Apr-2 @ 15:00 UTC

Apr-3@
06:00 UTC

Apr-3 @ 06:00 UTC

PROB30 TEMPO 0215/0306 -SHRA SCT022 BKN030

Temporary - 30% Likelihood

Temporary - 30% Likelihood during this time.

Conditions
Light Showers, Rain
Cloud Levels
  • Scattered at 2,200' AGL
  • Broken at 3,000' AGL